»·PEaware :: BLADE19 KSPS-KSPS

BLADE19 :: KSPS-KSPS

FLIGHT INFORMATION

Flight Status: Arrived
Operator: Unknown
More flights by this operator :: More flights under this callsign
Pilot: 80 FTW ENJJPT (22981)
Aircraft: BEECH AIRCRAFT T-6A TEXAN
(TEX2)
More flights by this aircraft type
Origin: KSPS Sheppard AFB/Wichita Falls Mu
United States
Destination: KSPS Sheppard AFB/Wichita Falls Mu
United States
More flights between these airports :: More routes between these airports
Route: +S1L 5L
File this flight plan on PilotEdge
Remarks:
Altitude:
(Current/Filed)
0ft
Speed:
(Current/Filed)
0kts
Departed: 25-Jun-20 09:46 AM
Arrived: 25-Jun-20 10:20 AM
Distance/Time
Traveled:
1nm/0:34
Distance/Time
To Go:
Arrived

Flight Plot

Page will automatically refresh every two minutes.

Flight plan parsing failed; only flown route is shown


Map Options




Map Legend


Flown Route
Filed Route
Departure Airport
Arrival Airport
Navaid (VOR, NDB)
Fix

Horizontal Profiles

Position Reports

Time Latitude Longitude Heading Altitude Ground
Speed
25-Jun-20 09:33 33.997857 -98.502346 252 1022ft 0kts
25-Jun-20 09:34 33.998763 -98.502828 336 1022ft 11kts
25-Jun-20 09:35 34.001790 -98.504559 337 1022ft 5kts
25-Jun-20 09:36 34.003233 -98.502634 23 1022ft 17kts
25-Jun-20 09:37 34.009439 -98.498256 67 1022ft 22kts
25-Jun-20 09:38 34.010888 -98.494417 101 1022ft 0kts
25-Jun-20 09:38 34.010888 -98.494417 101 1022ft 0kts
25-Jun-20 09:40 34.010869 -98.493938 85 1022ft 0kts
25-Jun-20 09:41 34.010875 -98.493908 74 1022ft 0kts
25-Jun-20 09:41 34.010879 -98.493895 72 1022ft 0kts
25-Jun-20 09:43 34.010879 -98.493895 72 1022ft 0kts
25-Jun-20 09:43 34.010990 -98.493694 60 1022ft 0kts
25-Jun-20 09:44 34.010992 -98.493691 60 1022ft 0kts
25-Jun-20 09:46 34.007149 -98.491316 157 1025ft 104kts
25-Jun-20 09:46 33.972746 -98.468780 133 2205ft 189kts
25-Jun-20 09:47 33.985813 -98.427703 334 5451ft 178kts
25-Jun-20 09:48 34.031364 -98.461245 331 8410ft 187kts
25-Jun-20 09:49 34.080434 -98.487394 339 11521ft 193kts
25-Jun-20 09:50 34.131658 -98.517144 334 13988ft 222kts
25-Jun-20 09:51 34.195556 -98.550445 346 14012ft 246kts
25-Jun-20 09:52 34.258238 -98.585541 317 13948ft 257kts
25-Jun-20 09:53 34.311644 -98.650009 313 13987ft 259kts
25-Jun-20 09:54 34.362965 -98.709385 320 14004ft 241kts
25-Jun-20 09:55 34.427748 -98.753758 330 12323ft 257kts
25-Jun-20 09:56 34.430426 -98.761526 199 11300ft 262kts
25-Jun-20 09:57 34.400952 -98.745914 182 10720ft 202kts
25-Jun-20 09:58 34.419801 -98.761803 354 10108ft 228kts
25-Jun-20 09:59 34.469219 -98.764764 359 9915ft 247kts
25-Jun-20 10:00 34.476938 -98.765163 12 10012ft 261kts
25-Jun-20 10:01 34.491033 -98.773440 353 10557ft 208kts
25-Jun-20 10:02 34.525919 -98.795045 184 11243ft 220kts
25-Jun-20 10:03 34.488970 -98.752557 151 10859ft 194kts
25-Jun-20 10:04 34.483316 -98.786143 0 10623ft 199kts
25-Jun-20 10:05 34.471201 -98.731388 134 8133ft 230kts
25-Jun-20 10:06 34.426669 -98.676437 134 7972ft 217kts
25-Jun-20 10:07 34.381146 -98.618762 131 7987ft 229kts
25-Jun-20 10:08 34.334531 -98.561940 135 7996ft 230kts
25-Jun-20 10:09 34.285001 -98.509539 153 4995ft 217kts
25-Jun-20 10:10 34.225000 -98.503566 179 2477ft 205kts
25-Jun-20 10:11 34.164337 -98.505532 196 1938ft 206kts
25-Jun-20 10:12 34.107042 -98.520630 187 2038ft 202kts
25-Jun-20 10:13 34.048239 -98.511440 156 2035ft 209kts
25-Jun-20 10:14 34.010060 -98.478657 355 2044ft 143kts
25-Jun-20 10:15 34.015502 -98.495410 158 1094ft 114kts
25-Jun-20 10:16 33.981144 -98.479120 124 1836ft 175kts
25-Jun-20 10:17 34.015831 -98.478766 345 1926ft 137kts
25-Jun-20 10:18 34.013351 -98.494362 159 1059ft 116kts
25-Jun-20 10:19 34.001888 -98.488967 152 1022ft 1kts
25-Jun-20 10:20 33.998917 -98.487376 156 1022ft 43kts
25-Jun-20 10:21 33.993653 -98.487255 182 1022ft 24kts
25-Jun-20 10:22 33.989025 -98.488052 245 1022ft 3kts
25-Jun-20 10:23 33.986330 -98.494714 271 1022ft 11kts
25-Jun-20 10:24 33.995811 -98.500190 265 1022ft 13kts

Navigation Log

Ident Type
Flight plan parsing failed, navigation log unavailable